Main page
METAR-TAF:

METAR-TAF

Airports :

Lar, Iran

Larestan International Airport

latitude: 27-40-26N, longitude: 054-22-53E, elevation: 792 m

Current weather observation

The report was made 17 minutes ago, at 17:00 UTC
Wind 4 kt from the West/Southwest
Temperature 36°C
Humidity 21%
Pressure 1004 hPa
Visibility 10 km or more
no clouds below 1500 m and no cumulonimbus

METAR: OISL 231700Z 24004KT CAVOK 36/10 Q1004

Time: 21:47 (17:17 UTC)

Forecast

The report was made 6 hours and 17 minutes ago, at 11:00 UTC
Forecast valid from 23 at 12 UTC to 24 at 18 UTC
Wind 10 kt from the Southeast
Visibility 10 km or more
no clouds below 1500 m and no cumulonimbus
Temporary
from 23 at 12 UTC to 23 at 18 UTC
Wind 10 kt from the West/Southwest
Temporary
from 24 at 06 UTC to 24 at 15 UTC
Wind 10 kt from the West/Southwest

TAF: OISL 231100Z 2312/2418 13005MPS CAVOK TEMPO 2312/2318 24005MPS TEMPO 2406/2415 24005MPS

Weather observations and forecasts of more than 4000 airports (METAR and TAF reports).

The available stations are represented by yellow and red dots on the map.

Hover mouse over dot to see the name of the station.

Then click to see weather observations and forecasts.

To change the map : click on the green buttons with a black cross to zoom in, on the green button with a dash to zoom out, or on the green arrows for adjacent maps.


METAR-TAF: